createdAt,value
2022-11-11T00:01:32.155Z,101192.28
2022-11-11T00:04:20.946Z,101195.19
2022-11-11T00:07:08.209Z,101187.25
2022-11-11T00:09:55.188Z,101191.41
2022-11-11T00:12:42.575Z,101188.59
2022-11-11T00:15:30.003Z,101182.47
2022-11-11T00:18:34.355Z,101179.31
2022-11-11T00:21:43.321Z,101176.88
2022-11-11T00:24:49.771Z,101170.50
2022-11-11T00:27:37.712Z,101165.28
2022-11-11T00:30:24.785Z,101171.59
2022-11-11T00:33:11.972Z,101174.06
2022-11-11T00:35:59.224Z,101175.88
2022-11-11T00:38:48.256Z,101185.03
2022-11-11T00:41:35.708Z,101192.91
2022-11-11T00:44:22.702Z,101186.88
2022-11-11T00:47:27.606Z,101191.41
2022-11-11T00:50:35.388Z,101188.72
2022-11-11T00:53:27.047Z,101193.84
2022-11-11T00:56:16.188Z,101198.28
2022-11-11T00:59:03.437Z,101192.75
2022-11-11T01:01:50.629Z,101193.00
2022-11-11T01:04:37.732Z,101191.16
2022-11-11T01:07:25.415Z,101190.31
2022-11-11T01:10:12.912Z,101189.56
2022-11-11T01:13:13.215Z,101191.16
2022-11-11T01:16:03.152Z,101182.34
2022-11-11T01:18:52.143Z,101185.19
2022-11-11T01:21:39.470Z,101185.56
2022-11-11T01:24:26.963Z,101179.69
2022-11-11T01:27:13.864Z,101177.34
2022-11-11T01:30:02.629Z,101176.72
2022-11-11T01:32:49.618Z,101176.97
2022-11-11T01:35:40.496Z,101177.22
2022-11-11T01:38:27.976Z,101175.50
2022-11-11T01:41:36.782Z,101175.50
2022-11-11T01:44:46.700Z,101182.84
2022-11-11T01:48:16.764Z,101177.69
2022-11-11T01:50:59.242Z,101175.38
2022-11-11T01:53:50.264Z,101174.00
2022-11-11T01:56:38.733Z,101170.59
2022-11-11T01:59:26.301Z,101172.91
2022-11-11T02:02:20.779Z,101173.16
2022-11-11T02:05:29.799Z,101168.13
2022-11-11T02:08:32.932Z,101161.28
2022-11-11T02:11:37.393Z,101158.84
2022-11-11T02:14:43.295Z,101157.34
2022-11-11T02:17:33.378Z,101153.31
2022-11-11T02:20:24.413Z,101166.00
2022-11-11T02:23:17.580Z,101164.16
2022-11-11T02:26:08.388Z,101161.38
2022-11-11T02:28:57.141Z,101161.25
2022-11-11T02:31:44.395Z,101172.22
2022-11-11T02:34:32.831Z,101171.97
2022-11-11T02:37:23.404Z,101164.16
2022-11-11T02:40:13.114Z,101177.06
2022-11-11T02:43:01.624Z,101171.69
2022-11-11T02:45:48.796Z,101166.53
2022-11-11T02:48:36.801Z,101164.94
2022-11-11T02:51:24.158Z,101158.22
2022-11-11T02:54:11.271Z,101155.78
2022-11-11T02:57:10.613Z,101148.47
2022-11-11T03:00:01.378Z,101146.50
2022-11-11T03:02:48.900Z,101144.91
2022-11-11T03:05:36.481Z,101141.28
2022-11-11T03:08:23.818Z,101150.06
2022-11-11T03:11:10.978Z,101149.81
2022-11-11T03:13:59.277Z,101148.75
2022-11-11T03:17:05.767Z,101156.53
2022-11-11T03:19:52.895Z,101159.22
2022-11-11T03:22:55.404Z,101145.06
2022-11-11T03:25:44.186Z,101152.03
2022-11-11T03:28:31.319Z,101159.13
2022-11-11T03:31:18.784Z,101148.03
2022-11-11T03:34:22.159Z,101151.69
2022-11-11T03:37:30.125Z,101149.75
2022-11-11T03:40:17.635Z,101154.13
2022-11-11T03:43:05.526Z,101147.56
2022-11-11T03:45:53.375Z,101155.63
2022-11-11T03:48:40.592Z,101175.41
2022-11-11T03:51:29.236Z,101162.81
2022-11-11T03:54:16.303Z,101169.88
2022-11-11T03:57:21.102Z,101162.72
2022-11-11T04:00:14.711Z,101163.41
2022-11-11T04:03:25.134Z,101174.06
2022-11-11T04:06:30.521Z,101165.25
2022-11-11T04:09:37.081Z,101158.06
2022-11-11T04:12:26.262Z,101154.41
2022-11-11T04:15:30.977Z,101156.84
2022-11-11T04:18:18.592Z,101158.69
2022-11-11T04:21:23.281Z,101152.47
2022-11-11T04:24:38.066Z,101144.28
2022-11-11T04:27:27.306Z,101121.94
2022-11-11T04:30:13.659Z,101117.56
2022-11-11T04:33:01.278Z,101113.91
2022-11-11T04:35:51.161Z,101107.78
2022-11-11T04:38:55.575Z,101101.31
2022-11-11T04:42:06.632Z,101100.47
2022-11-11T04:45:09.090Z,101099.72
2022-11-11T04:47:59.111Z,101087.28
2022-11-11T04:50:46.853Z,101077.50
2022-11-11T04:53:34.492Z,101073.03
2022-11-11T04:56:39.113Z,101070.34
2022-11-11T04:59:29.492Z,101061.41
2022-11-11T05:02:35.789Z,101058.84
2022-11-11T05:05:23.498Z,101066.56
2022-11-11T05:08:27.934Z,101060.44
2022-11-11T05:11:15.953Z,101069.34
2022-11-11T05:14:21.975Z,101077.28
2022-11-11T05:17:28.740Z,101082.41
2022-11-11T05:20:38.976Z,101084.97
2022-11-11T05:23:52.491Z,101077.78
2022-11-11T05:26:38.929Z,101082.16
2022-11-11T05:29:26.122Z,101076.56
2022-11-11T05:32:18.665Z,101065.59
2022-11-11T05:35:06.574Z,101051.91
2022-11-11T05:38:09.365Z,101056.03
2022-11-11T05:40:57.290Z,101046.19
2022-11-11T05:43:45.055Z,101036.03
2022-11-11T05:46:32.187Z,101021.66
2022-11-11T05:49:19.917Z,101015.19
2022-11-11T05:52:08.757Z,101031.16
2022-11-11T05:54:57.186Z,101032.75
2022-11-11T05:57:44.453Z,101041.53
2022-11-11T06:00:31.603Z,101046.44
2022-11-11T06:03:18.755Z,101050.69
2022-11-11T06:06:06.689Z,101050.69
2022-11-11T06:08:54.284Z,101042.75
2022-11-11T06:11:42.827Z,101045.34
2022-11-11T06:14:30.058Z,101043.13
2022-11-11T06:17:17.387Z,101043.13
2022-11-11T06:20:05.168Z,101049.34
2022-11-11T06:22:58.600Z,101039.19
2022-11-11T06:26:02.898Z,101022.09
2022-11-11T06:28:53.109Z,101028.94
2022-11-11T06:31:40.300Z,101031.38
2022-11-11T06:34:27.603Z,101015.25
2022-11-11T06:37:14.843Z,101020.00
2022-11-11T06:40:01.914Z,101025.22
2022-11-11T06:42:48.973Z,101024.13
2022-11-11T06:45:38.212Z,101029.38
2022-11-11T06:48:27.176Z,101022.19
2022-11-11T06:51:15.274Z,101021.81
2022-11-11T06:54:02.434Z,101019.84
2022-11-11T06:56:50.420Z,101023.13
2022-11-11T06:59:37.494Z,101016.91
2022-11-11T07:02:26.365Z,101015.78
2022-11-11T07:05:13.771Z,101017.63
2022-11-11T07:08:04.615Z,101002.50
2022-11-11T07:10:52.091Z,100997.59
2022-11-11T07:13:39.122Z,100998.28
2022-11-11T07:16:26.576Z,100990.97
2022-11-11T07:19:15.225Z,100998.91
2022-11-11T07:22:02.669Z,101002.44
2022-11-11T07:24:49.681Z,101007.69
2022-11-11T07:27:39.187Z,101005.59
2022-11-11T07:30:27.289Z,101006.59
2022-11-11T07:33:14.411Z,100976.88
2022-11-11T07:36:03.650Z,100978.59
2022-11-11T07:38:51.222Z,100979.44
2022-11-11T07:41:38.641Z,100985.41
2022-11-11T07:44:25.684Z,100990.78
2022-11-11T07:47:13.014Z,100993.34
2022-11-11T07:50:04.521Z,100995.91
2022-11-11T07:52:56.483Z,100994.81
2022-11-11T07:55:43.976Z,100987.59
2022-11-11T07:58:31.522Z,100994.53
2022-11-11T08:01:18.766Z,100986.09
2022-11-11T08:04:06.261Z,100976.91
2022-11-11T08:06:54.137Z,100974.94
2022-11-11T08:09:42.925Z,100974.69
2022-11-11T08:12:59.328Z,100972.72
2022-11-11T08:15:46.763Z,100973.69
2022-11-11T08:18:34.684Z,100977.75
2022-11-11T08:21:22.119Z,100982.00
2022-11-11T08:27:19.328Z,100981.19
2022-11-11T08:30:09.260Z,100982.66
2022-11-11T08:33:26.537Z,100985.22
2022-11-11T08:36:08.267Z,100977.72
2022-11-11T08:38:55.728Z,100981.88
2022-11-11T08:41:45.987Z,100992.38
2022-11-11T08:44:34.504Z,100977.66
2022-11-11T08:47:23.022Z,100974.25
2022-11-11T08:50:10.743Z,100967.63
2022-11-11T08:52:58.467Z,100950.59
2022-11-11T08:55:45.748Z,100955.25
2022-11-11T08:58:33.642Z,100963.19
2022-11-11T09:01:22.292Z,100955.72
2022-11-11T09:04:43.204Z,100943.13
2022-11-11T09:07:20.434Z,100951.91
2022-11-11T09:10:08.930Z,100959.72
2022-11-11T09:12:58.409Z,100967.06
2022-11-11T09:15:45.625Z,100945.66
2022-11-11T09:18:34.415Z,100938.47
2022-11-11T09:21:22.063Z,100943.56
2022-11-11T09:24:09.207Z,100947.22
2022-11-11T09:26:57.350Z,100945.53
2022-11-11T09:29:44.407Z,100945.66
2022-11-11T09:32:31.694Z,100942.84
2022-11-11T09:35:20.508Z,100950.06
2022-11-11T09:38:08.340Z,100935.75
2022-11-11T09:41:11.482Z,100938.19
2022-11-11T09:44:01.932Z,100924.44
2022-11-11T09:46:57.128Z,100917.09
2022-11-11T09:49:59.908Z,100918.78
2022-11-11T09:52:55.848Z,100911.41
2022-11-11T09:55:45.387Z,100914.28
2022-11-11T09:58:36.672Z,100910.44
2022-11-11T10:01:25.587Z,100920.22
2022-11-11T10:04:24.967Z,100918.25
2022-11-11T10:07:19.789Z,100918.25
2022-11-11T10:10:18.141Z,100912.72
2022-11-11T10:13:05.775Z,100908.44
2022-11-11T10:16:02.171Z,100890.59
2022-11-11T10:19:04.247Z,100874.31
2022-11-11T10:25:18.864Z,100880.28
2022-11-11T10:28:08.278Z,100874.03
2022-11-11T10:30:56.388Z,100865.81
2022-11-11T10:33:50.680Z,100868.50
2022-11-11T10:36:44.281Z,100863.81
2022-11-11T10:39:46.914Z,100879.75
2022-11-11T10:42:39.542Z,100877.72
2022-11-11T10:45:41.645Z,100882.88
2022-11-11T10:48:43.299Z,100885.28
2022-11-11T10:51:38.306Z,100884.28
2022-11-11T10:54:28.905Z,100873.50
2022-11-11T10:57:21.161Z,100877.75
2022-11-11T11:00:13.152Z,100872.25
2022-11-11T11:03:09.739Z,100879.19
2022-11-11T11:06:03.281Z,100889.13
2022-11-11T11:08:55.973Z,100886.28
2022-11-11T11:11:50.243Z,100871.84
2022-11-11T11:14:42.805Z,100866.16
2022-11-11T11:17:39.066Z,100859.09
2022-11-11T11:20:26.501Z,100851.69
2022-11-11T11:23:13.636Z,100865.03
2022-11-11T11:26:03.055Z,100855.94
2022-11-11T11:28:58.325Z,100868.31
2022-11-11T11:31:47.871Z,100871.69
2022-11-11T11:34:51.013Z,100869.00
2022-11-11T11:37:51.692Z,100862.78
2022-11-11T11:40:53.052Z,100866.19
2022-11-11T11:43:43.009Z,100861.78
2022-11-11T11:46:34.924Z,100864.91
2022-11-11T11:49:34.784Z,100866.59
2022-11-11T11:52:37.742Z,100864.47
2022-11-11T11:55:34.405Z,100872.44
2022-11-11T11:58:37.626Z,100872.31
2022-11-11T12:01:36.867Z,100871.47
2022-11-11T12:04:45.754Z,100861.38
2022-11-11T12:07:52.216Z,100860.69
2022-11-11T12:10:46.750Z,100859.66
2022-11-11T12:13:41.105Z,100854.00
2022-11-11T12:16:42.529Z,100850.31
2022-11-11T12:19:44.772Z,100844.66
2022-11-11T12:22:46.475Z,100838.41
2022-11-11T12:25:39.091Z,100835.56
2022-11-11T12:28:42.644Z,100820.09
2022-11-11T12:31:41.833Z,100825.19
2022-11-11T12:35:02.435Z,100821.34
2022-11-11T12:38:04.322Z,100825.78
2022-11-11T12:41:06.602Z,100813.84
2022-11-11T12:44:02.146Z,100826.31
2022-11-11T12:47:05.481Z,100836.13
2022-11-11T12:50:00.805Z,100831.44
2022-11-11T12:53:02.167Z,100829.59
2022-11-11T12:55:56.429Z,100835.84
2022-11-11T12:58:49.873Z,100831.16
2022-11-11T13:01:53.705Z,100831.16
2022-11-11T13:05:07.204Z,100837.41
2022-11-11T13:08:31.065Z,100836.41
2022-11-11T13:11:27.607Z,100841.66
2022-11-11T13:14:46.870Z,100840.66
2022-11-11T13:17:34.666Z,100850.59
2022-11-11T13:20:37.168Z,100846.91
2022-11-11T13:23:26.336Z,100852.31
2022-11-11T13:26:26.856Z,100851.19
2022-11-11T13:29:48.232Z,100855.00
2022-11-11T13:32:41.885Z,100846.91
2022-11-11T13:35:33.668Z,100859.09
2022-11-11T13:38:34.431Z,100866.34
2022-11-11T13:41:25.769Z,100855.56
2022-11-11T13:44:24.687Z,100858.13
2022-11-11T13:47:19.484Z,100848.03
2022-11-11T13:50:09.631Z,100855.25
2022-11-11T13:53:01.973Z,100851.44
2022-11-11T13:55:55.065Z,100849.75
2022-11-11T13:58:49.088Z,100841.34
2022-11-11T14:01:42.911Z,100843.22
2022-11-11T14:04:32.215Z,100847.59
2022-11-11T14:07:50.328Z,100842.91
2022-11-11T14:10:55.756Z,100859.09
2022-11-11T14:13:44.237Z,100858.78
2022-11-11T14:17:03.081Z,100852.84
2022-11-11T14:19:49.974Z,100855.38
2022-11-11T14:22:37.009Z,100849.97
2022-11-11T14:25:27.715Z,100847.28
2022-11-11T14:28:24.346Z,100831.69
2022-11-11T14:31:52.500Z,100843.75
2022-11-11T14:34:53.256Z,100843.03
2022-11-11T14:38:14.304Z,100840.06
2022-11-11T14:41:35.229Z,100832.97
2022-11-11T14:44:45.121Z,100836.66
2022-11-11T14:47:37.181Z,100840.06
2022-11-11T14:50:45.729Z,100834.94
2022-11-11T14:53:39.830Z,100832.97
2022-11-11T14:56:29.355Z,100835.81
2022-11-11T14:59:22.296Z,100836.50
2022-11-11T15:02:23.969Z,100850.84
2022-11-11T15:05:17.812Z,100846.44
2022-11-11T15:08:24.371Z,100841.75
2022-11-11T15:11:28.509Z,100849.97
2022-11-11T15:14:36.216Z,100852.84
2022-11-11T15:17:36.369Z,100849.31
2022-11-11T15:20:44.465Z,100846.88
2022-11-11T15:23:38.701Z,100843.19
2022-11-11T15:26:35.719Z,100853.13
2022-11-11T15:29:41.257Z,100855.84
2022-11-11T15:32:38.735Z,100855.84
2022-11-11T15:35:35.457Z,100852.25
2022-11-11T15:38:22.976Z,100854.13
2022-11-11T15:41:24.380Z,100858.53
2022-11-11T15:44:22.220Z,100845.19
2022-11-11T15:47:15.618Z,100839.66
2022-11-11T15:50:04.093Z,100842.50
2022-11-11T15:52:56.436Z,100841.47
2022-11-11T15:55:53.107Z,100851.41
2022-11-11T15:58:40.007Z,100854.97
2022-11-11T16:01:30.048Z,100851.41
2022-11-11T16:04:53.309Z,100853.13
2022-11-11T16:07:33.355Z,100851.41
2022-11-11T16:10:27.016Z,100844.34
2022-11-11T16:13:18.292Z,100851.41
2022-11-11T16:16:09.953Z,100851.41
2022-11-11T16:19:04.491Z,100862.63
2022-11-11T16:21:56.868Z,100860.78
2022-11-11T16:24:46.495Z,100856.09
2022-11-11T16:27:35.065Z,100857.94
2022-11-11T16:30:32.513Z,100861.50
2022-11-11T16:33:35.537Z,100867.75
2022-11-11T16:36:22.512Z,100851.72
2022-11-11T16:39:16.833Z,100854.28
2022-11-11T16:42:07.713Z,100853.41
2022-11-11T16:45:00.340Z,100865.91
2022-11-11T16:47:49.323Z,100857.66
2022-11-11T16:50:55.435Z,100847.16
2022-11-11T16:53:45.776Z,100846.44
2022-11-11T16:56:33.894Z,100852.56
2022-11-11T16:59:26.654Z,100857.94
2022-11-11T17:02:18.435Z,100864.47
2022-11-11T17:05:06.498Z,100860.78
2022-11-11T17:07:53.755Z,100868.03
2022-11-11T17:10:41.922Z,100864.34
2022-11-11T17:13:29.223Z,100867.19
2022-11-11T17:16:17.668Z,100853.56
2022-11-11T17:19:05.534Z,100861.66
2022-11-11T17:21:52.713Z,100859.09
2022-11-11T17:24:40.642Z,100852.84
2022-11-11T17:27:31.901Z,100873.28
2022-11-11T17:30:18.951Z,100869.56
2022-11-11T17:33:07.338Z,100875.84
2022-11-11T17:35:55.559Z,100878.53
2022-11-11T17:38:42.497Z,100889.03
2022-11-11T17:41:29.852Z,100880.94
2022-11-11T17:44:16.939Z,100878.09
2022-11-11T17:47:04.341Z,100871.84
2022-11-11T17:49:57.350Z,100882.50
2022-11-11T17:52:44.722Z,100874.25
2022-11-11T17:55:33.203Z,100874.97
2022-11-11T17:58:20.270Z,100883.63
2022-11-11T18:01:08.821Z,100886.34
2022-11-11T18:03:59.434Z,100878.78
2022-11-11T18:06:48.606Z,100879.09
2022-11-11T18:09:35.975Z,100886.16
2022-11-11T18:12:23.146Z,100885.19
2022-11-11T18:15:13.313Z,100885.31
2022-11-11T18:18:00.071Z,100875.13
2022-11-11T18:20:46.987Z,100870.56
2022-11-11T18:23:37.279Z,100873.09
2022-11-11T18:26:24.397Z,100872.97
2022-11-11T18:29:11.981Z,100890.03
2022-11-11T18:31:59.594Z,100886.19
2022-11-11T18:34:46.552Z,100871.56
2022-11-11T18:37:33.893Z,100863.44
2022-11-11T18:40:22.533Z,100855.66
2022-11-11T18:43:09.865Z,100851.81
2022-11-11T18:45:56.916Z,100853.66
2022-11-11T18:48:44.687Z,100852.53
2022-11-11T18:51:34.878Z,100852.66
2022-11-11T18:54:26.271Z,100849.69
2022-11-11T18:57:17.662Z,100850.81
2022-11-11T19:00:05.503Z,100857.06
2022-11-11T19:02:52.680Z,100861.47
2022-11-11T19:05:39.640Z,100863.44
2022-11-11T19:08:26.843Z,100858.91
2022-11-11T19:11:14.246Z,100859.59
2022-11-11T19:14:03.400Z,100871.28
2022-11-11T19:16:50.402Z,100876.38
2022-11-11T19:19:37.660Z,100872.97
2022-11-11T19:22:24.903Z,100871.97
2022-11-11T19:25:12.182Z,100870.13
2022-11-11T19:27:59.582Z,100867.97
2022-11-11T19:30:47.925Z,100867.97
2022-11-11T19:33:36.100Z,100870.38
2022-11-11T19:36:27.159Z,100874.22
2022-11-11T19:39:14.280Z,100869.53
2022-11-11T19:42:01.220Z,100860.91
2022-11-11T19:44:48.621Z,100860.44
2022-11-11T19:47:37.353Z,100860.44
2022-11-11T19:50:24.362Z,100856.03
2022-11-11T19:53:13.390Z,100843.38
2022-11-11T19:56:00.750Z,100862.69
2022-11-11T19:58:49.080Z,100872.81
2022-11-11T20:01:37.226Z,100880.91
2022-11-11T20:04:25.560Z,100866.41
2022-11-11T20:07:12.586Z,100885.28
2022-11-11T20:09:59.948Z,100880.59
2022-11-11T20:12:48.321Z,100887.88
2022-11-11T20:15:36.266Z,100878.03
2022-11-11T20:18:23.363Z,100871.81
2022-11-11T20:21:13.288Z,100872.66
2022-11-11T20:24:01.639Z,100872.66
2022-11-11T20:26:52.294Z,100868.41
2022-11-11T20:29:40.216Z,100863.84
2022-11-11T20:32:30.498Z,100861.31
2022-11-11T20:35:17.918Z,100867.97
2022-11-11T20:38:06.415Z,100880.19
2022-11-11T20:41:00.282Z,100891.00
2022-11-11T20:43:48.301Z,100889.00
2022-11-11T20:46:35.705Z,100874.63
2022-11-11T20:49:22.986Z,100876.50
2022-11-11T20:52:12.001Z,100880.19
2022-11-11T20:55:00.734Z,100873.78
2022-11-11T20:57:47.845Z,100884.59
2022-11-11T21:00:35.427Z,100875.66
2022-11-11T21:03:23.172Z,100870.97
2022-11-11T21:06:11.917Z,100862.69
2022-11-11T21:08:59.837Z,100853.91
2022-11-11T21:11:48.747Z,100863.84
2022-11-11T21:14:35.948Z,100868.41
2022-11-11T21:17:23.282Z,100866.41
2022-11-11T21:20:10.976Z,100866.28
2022-11-11T21:22:58.705Z,100868.81
2022-11-11T21:25:45.962Z,100880.59
2022-11-11T21:28:36.098Z,100878.03
2022-11-11T21:31:25.102Z,100892.25
2022-11-11T21:34:14.164Z,100895.66
2022-11-11T21:37:01.403Z,100899.22
2022-11-11T21:39:48.765Z,100898.50
2022-11-11T21:42:35.827Z,100891.25
2022-11-11T21:45:24.684Z,100888.53
2022-11-11T21:48:12.041Z,100888.41
2022-11-11T21:51:04.141Z,100874.06
2022-11-11T21:53:55.615Z,100876.59
2022-11-11T21:56:47.583Z,100871.38
2022-11-11T21:59:34.840Z,100862.66
2022-11-11T22:02:24.576Z,100883.41
2022-11-11T22:05:12.047Z,100901.47
2022-11-11T22:07:59.384Z,100908.72
2022-11-11T22:10:46.847Z,100907.00
2022-11-11T22:13:35.413Z,100906.16
2022-11-11T22:16:25.164Z,100913.41
2022-11-11T22:19:16.147Z,100917.97
2022-11-11T22:22:03.409Z,100906.28
2022-11-11T22:24:50.767Z,100922.34
2022-11-11T22:27:38.132Z,100922.91
2022-11-11T22:30:25.530Z,100903.59
2022-11-11T22:33:13.054Z,100916.97
2022-11-11T22:36:04.172Z,100901.59
2022-11-11T22:38:51.889Z,100900.63
2022-11-11T22:41:40.802Z,100901.31
2022-11-11T22:44:28.140Z,100890.22
2022-11-11T22:47:15.599Z,100893.91
2022-11-11T22:50:02.847Z,100884.84
2022-11-11T22:52:52.641Z,100888.25
2022-11-11T22:55:43.014Z,100891.63
2022-11-11T22:58:34.060Z,100895.34
2022-11-11T23:01:29.128Z,100899.72
2022-11-11T23:04:17.687Z,100910.38
2022-11-11T23:07:05.070Z,100912.94
2022-11-11T23:09:54.032Z,100917.63
2022-11-11T23:12:41.340Z,100919.34
2022-11-11T23:15:28.938Z,100917.63
2022-11-11T23:18:16.282Z,100917.63
2022-11-11T23:21:06.130Z,100922.03
2022-11-11T23:23:53.450Z,100913.94
2022-11-11T23:26:43.709Z,100920.03
2022-11-11T23:29:31.716Z,100917.22
2022-11-11T23:32:18.987Z,100911.81
2022-11-11T23:35:07.062Z,100916.31
2022-11-11T23:37:54.202Z,100913.78
2022-11-11T23:40:41.603Z,100909.38
2022-11-11T23:43:30.664Z,100905.53
2022-11-11T23:46:17.468Z,100903.41
2022-11-11T23:49:04.653Z,100904.38
2022-11-11T23:51:51.959Z,100902.56
2022-11-11T23:54:38.901Z,100886.34
2022-11-11T23:57:26.102Z,100896.13
